James Reserve, California Weather observations

Data are for 10 minute period ending at time listed.
 Day   Time   Solar   Ave.   Ave.  Ave.  Vector  Max.   Baro.   Total    
  of    of     Rad.   Air    Rel.  Wind   Wind   Wind  Press.  Precip.   
Year   Day            Temp.  Hum.  Speed  Dir.   Gust                    
2014   (PST)  Kw/m2    F      %     mph   deg.    mph    mb.     in.     
-------------------------------------------------------------------------
 209    7:00   0.05   57.7    89    0.3    45     0.5   843.0    0.00 
 209    7:10   0.09   58.3    90    0.2    47     0.5   843.0    0.00 
 209    7:20   0.11   59.6    88    0.2    57     0.4   844.0    0.00 
 209    7:30   0.09   60.5    87    0.2    48     0.4   843.0    0.00 
 209    7:40   0.16   61.2    87    0.2    56     0.5   844.0    0.00 
 209    7:50   0.22   62.7    83    0.2    45     0.4   844.0    0.00 
 209    8:00   0.28   64.3    83    0.2   214     0.5   844.0    0.00 
 209    8:10   0.31   66.1    79    0.2   192     0.6   844.0    0.00 
 209    8:20   0.17   66.4    75    0.3   215     0.6   844.0    0.00 
 209    8:30   0.16   66.2    75    0.4   175     0.8   844.0    0.00 
 209    8:40   0.18   66.3    74    0.3   210     0.6   844.0    0.00 
 209    8:50   0.26   67.2    67    0.3   170     0.7   844.0    0.00 
 209    9:00   0.60   68.1    63    0.4   173     1.1   844.0    0.00 
 209    9:10   0.65   69.6    57    0.6   176     1.3   844.0    0.00 
 209    9:20   0.67   70.4    54    0.6   178     1.4   844.0    0.00 
 209    9:30   0.65   71.4    50    0.7   168     1.7   844.0    0.00 
 209    9:40   0.53   71.5    47    0.7   155     3.2   844.0    0.00 
 209    9:50   0.25   71.5    49    0.7   157     1.8   844.0    0.00 
 209   10:00   0.23   70.8    50    0.6   184     1.8   844.0    0.00 
 209   10:10   0.42   71.1    52    0.6   197     1.6   844.0    0.00 
 209   10:20   0.91   72.3    49    0.8   183     1.9   844.0    0.00 
 209   10:30   0.81   73.5    48    0.8   138     2.3   844.0    0.00 
 209   10:40   0.87   74.2    47    1.1   179     2.4   844.0    0.00 
 209   10:50   0.85   73.9    47    1.0   174     2.9   844.0    0.00 
 209   11:00   0.55   73.4    48    0.8   191     2.0   844.0    0.00 
 209   11:10   0.54   73.2    48    0.9   170     2.2   844.0    0.00 
 209   11:20   0.43   72.9    49    0.6   192     1.5   844.0    0.00 
 209   11:30   0.76   72.6    48    0.7   145     2.1   844.0    0.00 
 209   11:40   1.09   73.5    46    1.0   162     2.4   844.0    0.00 
 209   11:50   0.91   74.2    45    1.1   184     2.9   844.0    0.00 
 209   12:00   0.86   74.9    43    0.7   184     1.8   844.0    0.00 
 209   12:10   0.90   75.6    42    0.7   165     1.8   843.0    0.00 
 209   12:20   1.00   76.2    39    0.9   197     2.5   844.0    0.00 
 209   12:30   1.00   76.3    37    1.1   200     2.6   843.0    0.00 
 209   12:40   1.01   76.9    36    1.0   197     2.4   843.0    0.00 
 209   12:50   0.97   76.9    36    1.2   181     2.4   843.0    0.00 
 209   13:00   1.00   77.0    35    1.3   173     3.5   843.0    0.00 
 209   13:10   1.01   77.0    34    1.0   204     2.6   843.0    0.00 
 209   13:20   0.96   78.3    33    0.9   176     3.1   843.0    0.00 
 209   13:30   0.91   78.0    32    1.1   148     3.2   843.0    0.00 
 209   13:40   0.94   77.9    33    1.1   201     2.2   843.0    0.00 
 209   13:50   0.92   77.3    33    1.0   202     3.2   843.0    0.00 
 209   14:00   0.90   77.8    32    0.9   137     2.1   843.0    0.00 
 209   14:10   0.88   78.1    31    0.8   124     2.4   843.0    0.00 
 209   14:20   0.27   77.8    31    0.9   191     2.2   843.0    0.00 
 209   14:30   0.08   77.4    30    1.1   173     2.8   843.0    0.00 
 209   14:40   0.07   76.6    30    1.0   166     2.7   843.0    0.00 
 209   14:50   0.07   76.6    30    1.1   146     2.6   843.0    0.00 
 209   15:00   0.06   76.0    30    0.9   162     2.4   843.0    0.00 
 209   15:10   0.06   75.3    31    0.8   232     2.4   843.0    0.00 
 209   15:20   0.08   75.6    32    0.9   137     3.3   843.0    0.00 
 209   15:30   0.17   75.5    32    1.1   163     3.1   843.0    0.00 
 209   15:40   0.09   75.8    32    1.0   179     2.9   843.0    0.00 
 209   15:50   0.06   75.4    34    0.9   185     2.9   843.0    0.00 
 209   16:00   0.09   75.0    34    0.9   208     2.5   843.0    0.00 
 209   16:10   0.32   74.6    35    0.8   151     2.3   842.0    0.00 
 209   16:20   0.11   74.7    36    0.7   176     2.1   842.0    0.00 
 209   16:30   0.04   74.1    36    0.6   134     1.7   842.0    0.00 
 209   16:40   0.03   74.4    37    0.7   147     1.8   842.0    0.00 
 209   16:50   0.03   73.8    39    0.6   230     2.4   842.0    0.00 
 209   17:00   0.03   73.7    38    0.6   154     1.8   842.0    0.00 
 209   17:10   0.03   73.5    37    0.6   152     2.7   842.0    0.00 
 209   17:20   0.03   73.2    37    0.7   188     2.2   842.0    0.00 
 209   17:30   0.03   72.6    38    0.5   232     1.5   842.0    0.00 
 209   17:40   0.02   72.0    41    0.4   211     1.2   842.0    0.00 
 209   17:50   0.02   71.2    43    0.4   294     0.8   843.0    0.00 
 209   18:00   0.02   70.8    44    0.3   217     0.9   842.0    0.00 
 209   18:10   0.01   70.0    45    0.2   291     0.6   842.0    0.00 
 209   18:20   0.01   69.1    47    0.2   317     0.5   843.0    0.00 
 209   18:30   0.01   68.6    46    0.3   346     0.6   843.0    0.00 
 209   18:40   0.00   67.9    46    0.3    17     0.7   843.0    0.00 
 209   18:50   0.00   67.2    46    0.3    18     0.5   843.0    0.00 
 209   19:00   0.00   66.3    47    0.3   356     0.6   843.0    0.00 
 209   19:10   0.00   65.4    48    0.2   349     0.5   843.0    0.00 
 209   19:20   0.00   64.6    48    0.3     2     0.5   843.0    0.00 
 209   19:30   0.00   63.6    52    0.2   322     0.4   843.0    0.00 
 209   19:40   0.00   63.0    51    0.3     5     0.7   843.0    0.00 
 209   19:50   0.00   62.5    52    0.3   342     0.5   843.0    0.00 
 209   20:00   0.00   61.8    53    0.3   354     0.5   843.0    0.00 
 209   20:10   0.00   61.4    54    0.3   343     0.4   843.0    0.00 
 209   20:20   0.00   60.8    55    0.3     0     0.6   843.0    0.00 
 209   20:30   0.00   60.6    57    0.3    17     0.5   843.0    0.00 
 209   20:40   0.00   60.4    57    0.2   340     0.4   843.0    0.00 
 209   20:50   0.00   59.8    58    0.2   339     0.5   843.0    0.00 
 209   21:00   0.00   59.9    58    0.4    20     0.8   844.0    0.00 
 209   21:10   0.00   59.7    58    0.3   349     0.5   844.0    0.00 
 209   21:20   0.00   59.4    59    0.3     1     0.5   844.0    0.00 
 209   21:30   0.00   59.3    60    0.4    17     0.6   843.0    0.00 
 209   21:40   0.00   59.3    60    0.2     6     0.5   843.0    0.00 
 209   21:50   0.00   58.9    61    0.3    30     0.7   843.0    0.00 
 209   22:00   0.00   58.9    62    0.3   359     0.6   843.0    0.00 
 209   22:10   0.00   58.7    62    0.2    11     0.4   843.0    0.00 
 209   22:20   0.00   58.4    64    0.3    23     0.7   843.0    0.00 
 209   22:30   0.00   58.3    65    0.2    24     0.4   843.0    0.00 
 209   22:40   0.00   58.0    65    0.2   357     0.3   843.0    0.00 
 209   22:50   0.00   57.8    65    0.2     3     0.4   843.0    0.00 
 209   23:00   0.00   57.5    66    0.3    23     0.6   843.0    0.00 
 209   23:10   0.00   57.4    67    0.3     1     0.4   843.0    0.00 
 209   23:20   0.00   57.2    68    0.2    16     0.4   843.0    0.00 
 209   23:30   0.00   57.1    68    0.2    24     0.4   843.0    0.00 
 209   23:40   0.00   57.0    68    0.2   358     0.4   843.0    0.00 
 209   23:50   0.00   56.8    68    0.3    24     0.4   843.0    0.00 
 210    0:00   0.00   56.7    68    0.2     2     0.4   843.0    0.00 
 210    0:10   0.00   56.4    67    0.3    24     0.4   843.0    0.00 
 210    0:20   0.00   56.2    68    0.3    10     0.6   843.0    0.00 
 210    0:30   0.00   56.1    66    0.3    17     0.7   843.0    0.00 
 210    0:40   0.00   55.9    67    0.3    10     0.5   843.0    0.00 
 210    0:50   0.00   55.9    66    0.3     4     0.6   843.0    0.00 
 210    1:00   0.00   55.8    66    0.4    24     0.7   843.0    0.00 
 210    1:10   0.00   55.7    67    0.4    28     0.7   843.0    0.00 
 210    1:20   0.00   55.6    68    0.2    25     0.4   843.0    0.00 
 210    1:30   0.00   55.6    69    0.3    32     0.5   843.0    0.00 
 210    1:40   0.00   55.6    69    0.4    21     0.7   843.0    0.00 
 210    1:50   0.00   55.5    70    0.3    34     0.6   843.0    0.00 
 210    2:00   0.00   55.5    70    0.2     9     0.4   843.0    0.00 
 210    2:10   0.00   55.4    70    0.3    23     0.6   843.0    0.00 
 210    2:20   0.00   55.3    70    0.3    30     0.4   843.0    0.00 
 210    2:30   0.00   55.0    71    0.2    21     0.5   843.0    0.00 
 210    2:40   0.00   55.0    70    0.3    22     0.5   843.0    0.00 
 210    2:50   0.00   54.9    70    0.2    27     0.5   843.0    0.00 
 210    3:00   0.00   54.7    70    0.4    31     1.1   843.0    0.00 
 210    3:10   0.00   54.6    70    0.2     9     0.6   843.0    0.00 
 210    3:20   0.00   54.6    70    0.2    18     0.5   843.0    0.00 
 210    3:30   0.00   54.4    70    0.3    26     0.6   843.0    0.00 
 210    3:40   0.00   54.3    70    0.3    15     0.5   843.0    0.00 
 210    3:50   0.00   54.2    70    0.3    33     0.5   843.0    0.00 
 210    4:00   0.00   54.2    70    0.3    34     0.5   843.0    0.00 
 210    4:10   0.00   54.2    69    0.2    21     0.4   843.0    0.00 
 210    4:20   0.00   54.2    68    0.3    31     0.5   843.0    0.00 
 210    4:30   0.00   54.2    68    0.3    27     0.5   843.0    0.00 
 210    4:40   0.00   54.2    68    0.2    26     0.4   843.0    0.00 
 210    4:50   0.00   54.2    68    0.3    20     0.5   843.0    0.00 
 210    5:00   0.00   54.2    68    0.3    26     0.6   843.0    0.00 
 210    5:10   0.00   54.2    67    0.3    30     0.5   843.0    0.00 
 210    5:20   0.01   54.3    67    0.3    32     0.6   843.0    0.00 
 210    5:30   0.01   54.4    67    0.4    33     0.8   843.0    0.00 
 210    5:40   0.01   54.7    67    0.4    44     0.7   843.0    0.00 
 210    5:50   0.01   54.8    68    0.3    34     0.5   843.0    0.00 
 210    6:00   0.02   55.2    68    0.3    38     0.7   843.0    0.00 
 210    6:10   0.02   55.6    69    0.4    41     0.7   843.0    0.00 
 210    6:20   0.03   56.2    68    0.5    46     0.8   843.0    0.00 
 210    6:30   0.03   57.0    68    0.5    48     0.9   843.0    0.00 
 210    6:40   0.03   57.8    68    0.5    49     0.9   843.0    0.00 
 210    6:50   0.05   58.7    66    0.5    48     0.8   843.0    0.00 

Return to James Reserve graphs page.


Western Regional Climate Center,wrcc@dri.edu